createdAt,value
2022-10-12T00:02:38.081Z,99903.73
2022-10-12T00:05:43.980Z,99907.19
2022-10-12T00:08:51.625Z,99909.41
2022-10-12T00:11:57.490Z,99907.21
2022-10-12T00:15:03.740Z,99908.05
2022-10-12T00:18:10.177Z,99907.38
2022-10-12T00:21:18.252Z,99908.23
2022-10-12T00:24:24.160Z,99911.77
2022-10-12T00:27:30.299Z,99908.94
2022-10-12T00:30:41.020Z,99911.39
2022-10-12T00:33:48.204Z,99910.13
2022-10-12T00:36:56.402Z,99912.98
2022-10-12T00:40:02.553Z,99912.95
2022-10-12T00:43:29.649Z,99911.34
2022-10-12T00:46:42.662Z,99910.83
2022-10-12T00:49:51.684Z,99909.18
2022-10-12T00:53:03.296Z,99906.45
2022-10-12T00:56:14.462Z,99904.13
2022-10-12T00:59:23.787Z,99901.75
2022-10-12T01:02:33.474Z,99907.20
2022-10-12T01:05:42.755Z,99910.18
2022-10-12T01:08:49.880Z,99909.95
2022-10-12T01:11:57.857Z,99909.31
2022-10-12T01:15:04.334Z,99907.73
2022-10-12T01:18:16.063Z,99908.95
2022-10-12T01:21:23.895Z,99907.82
2022-10-12T01:24:52.026Z,99905.63
2022-10-12T01:28:03.432Z,99910.98
2022-10-12T01:31:15.818Z,99914.21
2022-10-12T01:34:29.697Z,99916.13
2022-10-12T01:37:47.910Z,99913.43
2022-10-12T01:41:03.348Z,99911.29
2022-10-12T01:44:09.498Z,99907.95
2022-10-12T01:47:16.993Z,99906.88
2022-10-12T01:50:28.241Z,99911.73
2022-10-12T01:53:41.807Z,99908.91
2022-10-12T01:56:55.539Z,99910.00
2022-10-12T02:00:08.280Z,99912.09
2022-10-12T02:03:22.184Z,99912.91
2022-10-12T02:06:33.912Z,99910.77
2022-10-12T02:09:41.346Z,99912.49
2022-10-12T02:12:50.937Z,99912.09
2022-10-12T02:16:00.247Z,99910.89
2022-10-12T02:19:10.913Z,99915.26
2022-10-12T02:22:18.992Z,99915.59
2022-10-12T02:25:27.744Z,99915.17
2022-10-12T02:28:37.514Z,99915.67
2022-10-12T02:31:53.730Z,99912.92
2022-10-12T02:35:02.942Z,99917.89
2022-10-12T02:38:15.861Z,99921.33
2022-10-12T02:41:28.062Z,99920.87
2022-10-12T02:44:38.519Z,99926.55
2022-10-12T02:47:47.261Z,99934.41
2022-10-12T02:50:57.118Z,99933.33
2022-10-12T02:54:04.389Z,99928.27
2022-10-12T02:57:11.162Z,99934.73
2022-10-12T03:00:19.517Z,99932.48
2022-10-12T03:03:25.702Z,99928.67
2022-10-12T03:06:31.746Z,99932.43
2022-10-12T03:09:37.816Z,99935.40
2022-10-12T03:12:49.106Z,99930.30
2022-10-12T03:16:02.071Z,99931.34
2022-10-12T03:19:08.275Z,99932.98
2022-10-12T03:22:14.316Z,99934.98
2022-10-12T03:25:20.456Z,99933.27
2022-10-12T03:28:26.666Z,99929.99
2022-10-12T03:31:31.323Z,99932.52
2022-10-12T03:34:37.381Z,99930.69
2022-10-12T03:37:43.535Z,99929.92
2022-10-12T03:40:49.980Z,99928.52
2022-10-12T03:43:56.015Z,99931.29
2022-10-12T03:47:02.071Z,99933.00
2022-10-12T03:50:09.554Z,99933.28
2022-10-12T03:53:15.724Z,99931.13
2022-10-12T03:56:21.759Z,99931.48
2022-10-12T03:59:28.636Z,99932.70
2022-10-12T04:02:34.704Z,99932.77
2022-10-12T04:05:41.055Z,99930.91
2022-10-12T04:08:49.929Z,99933.95
2022-10-12T04:11:57.088Z,99932.09
2022-10-12T04:15:03.448Z,99932.86
2022-10-12T04:18:08.045Z,99937.08
2022-10-12T04:21:16.479Z,99939.73
2022-10-12T04:24:22.607Z,99936.31
2022-10-12T04:27:28.800Z,99938.20
2022-10-12T04:30:34.891Z,99939.10
2022-10-12T04:33:41.161Z,99941.73
2022-10-12T04:36:47.275Z,99943.54
2022-10-12T04:39:53.380Z,99943.71
2022-10-12T04:42:59.435Z,99947.09
2022-10-12T04:46:05.645Z,99948.35
2022-10-12T04:49:11.780Z,99951.23
2022-10-12T04:52:17.750Z,99950.08
2022-10-12T04:55:24.062Z,99955.45
2022-10-12T04:58:29.006Z,99957.49
2022-10-12T05:01:35.165Z,99954.94
2022-10-12T05:04:41.365Z,99956.14
2022-10-12T05:07:47.656Z,99960.44
2022-10-12T05:10:52.281Z,99960.98
2022-10-12T05:13:58.493Z,99958.64
2022-10-12T05:17:04.674Z,99957.31
2022-10-12T05:20:13.498Z,99954.98
2022-10-12T05:23:19.571Z,99958.38
2022-10-12T05:26:25.914Z,99966.63
2022-10-12T05:29:30.400Z,99969.81
2022-10-12T05:32:36.833Z,99966.68
2022-10-12T05:35:47.481Z,99968.33
2022-10-12T05:38:55.067Z,99964.98
2022-10-12T05:42:01.179Z,99966.25
2022-10-12T05:45:08.947Z,99969.27
2022-10-12T05:48:15.311Z,99969.35
2022-10-12T05:51:19.886Z,99971.84
2022-10-12T05:54:26.153Z,99971.36
2022-10-12T05:57:32.420Z,99972.31
2022-10-12T06:00:39.051Z,99974.38
2022-10-12T06:03:45.202Z,99968.68
2022-10-12T06:06:51.365Z,99969.83
2022-10-12T06:09:57.461Z,99978.44
2022-10-12T06:13:03.850Z,99977.46
2022-10-12T06:16:10.600Z,99974.19
2022-10-12T06:19:16.780Z,99975.09
2022-10-12T06:22:22.823Z,99975.53
2022-10-12T06:25:29.224Z,99977.55
2022-10-12T06:28:35.573Z,99982.25
2022-10-12T06:31:40.219Z,99985.75
2022-10-12T06:34:46.959Z,99985.60
2022-10-12T06:37:54.016Z,99987.83
2022-10-12T06:41:00.720Z,99986.73
2022-10-12T06:44:07.136Z,99988.86
2022-10-12T06:47:13.315Z,99985.73
2022-10-12T06:50:19.642Z,99982.66
2022-10-12T06:53:25.684Z,99983.24
2022-10-12T06:56:32.263Z,99987.79
2022-10-12T06:59:38.384Z,99991.49
2022-10-12T07:02:44.928Z,99993.13
2022-10-12T07:05:51.020Z,99991.94
2022-10-12T07:08:58.050Z,99991.92
2022-10-12T07:12:04.193Z,99987.64
2022-10-12T07:15:11.928Z,99986.16
2022-10-12T07:18:17.964Z,99987.69
2022-10-12T07:21:24.062Z,99985.41
2022-10-12T07:24:36.529Z,99984.06
2022-10-12T07:27:42.559Z,99982.67
2022-10-12T07:30:48.870Z,99981.41
2022-10-12T07:33:53.352Z,99977.61
2022-10-12T07:37:00.130Z,99975.30
2022-10-12T07:40:07.495Z,99974.27
2022-10-12T07:43:16.063Z,99970.91
2022-10-12T07:46:22.691Z,99966.85
2022-10-12T07:49:28.953Z,99965.05
2022-10-12T07:52:35.808Z,99965.02
2022-10-12T07:55:42.052Z,99962.48
2022-10-12T07:58:51.357Z,99963.13
2022-10-12T08:01:57.570Z,99961.28
2022-10-12T08:05:03.764Z,99957.11
2022-10-12T08:08:10.013Z,99957.60
2022-10-12T08:11:14.782Z,99955.16
2022-10-12T08:14:21.011Z,99955.33
2022-10-12T08:17:27.538Z,99951.96
2022-10-12T08:20:33.783Z,99948.80
2022-10-12T08:23:40.239Z,99949.38
2022-10-12T08:26:46.318Z,99947.76
2022-10-12T08:29:52.450Z,99944.11
2022-10-12T08:32:58.597Z,99941.38
2022-10-12T08:36:06.691Z,99942.01
2022-10-12T08:39:12.840Z,99941.58
2022-10-12T08:42:35.367Z,99935.75
2022-10-12T08:45:49.192Z,99931.27
2022-10-12T08:49:02.977Z,99931.38
2022-10-12T08:52:22.818Z,99933.27
2022-10-12T08:55:38.094Z,99937.22
2022-10-12T08:58:45.636Z,99937.48
2022-10-12T09:02:04.228Z,99932.55
2022-10-12T09:05:16.275Z,99931.52
2022-10-12T09:08:33.591Z,99930.23
2022-10-12T09:11:53.167Z,99927.72
2022-10-12T09:15:03.668Z,99924.95
2022-10-12T09:18:20.330Z,99925.91
2022-10-12T09:21:28.540Z,99924.59
2022-10-12T09:24:39.398Z,99925.17
2022-10-12T09:27:48.286Z,99924.87
2022-10-12T09:31:17.984Z,99922.87
2022-10-12T09:34:24.843Z,99919.24
2022-10-12T09:37:33.704Z,99919.45
2022-10-12T09:40:40.478Z,99917.66
2022-10-12T09:43:46.905Z,99918.80
2022-10-12T09:46:57.516Z,99916.73
2022-10-12T09:50:05.750Z,99919.23
2022-10-12T09:53:28.857Z,99917.41
2022-10-12T09:56:41.800Z,99918.20
2022-10-12T09:59:48.486Z,99921.27
2022-10-12T10:02:55.712Z,99919.52
2022-10-12T10:06:07.504Z,99917.40
2022-10-12T10:09:33.587Z,99917.45
2022-10-12T10:12:44.231Z,99916.13
2022-10-12T10:15:52.086Z,99917.18
2022-10-12T10:19:03.148Z,99914.08
2022-10-12T10:22:09.379Z,99914.77
2022-10-12T10:25:21.071Z,99912.38
2022-10-12T10:28:31.841Z,99910.29
2022-10-12T10:31:38.078Z,99909.33
2022-10-12T10:34:43.820Z,99906.22
2022-10-12T10:37:50.679Z,99902.77
2022-10-12T10:40:58.685Z,99903.58
2022-10-12T10:44:06.348Z,99900.39
2022-10-12T10:47:14.659Z,99895.13
2022-10-12T10:50:31.897Z,99895.49
2022-10-12T10:53:49.832Z,99899.38
2022-10-12T10:57:03.383Z,99893.98
2022-10-12T11:03:52.386Z,99897.20
2022-10-12T11:07:03.027Z,99894.84
2022-10-12T11:10:22.015Z,99895.13
2022-10-12T11:13:34.005Z,99893.58
2022-10-12T11:16:45.097Z,99891.98
2022-10-12T11:19:57.064Z,99890.55
2022-10-12T11:23:10.810Z,99888.83
2022-10-12T11:26:24.154Z,99888.55
2022-10-12T11:29:30.823Z,99884.60
2022-10-12T11:32:41.890Z,99882.67
2022-10-12T11:35:49.015Z,99882.38
2022-10-12T11:39:05.895Z,99889.60
2022-10-12T11:42:22.147Z,99876.48
2022-10-12T11:45:31.838Z,99872.27
2022-10-12T11:48:43.431Z,99872.12
2022-10-12T11:51:52.627Z,99874.02
2022-10-12T11:55:09.508Z,99871.80
2022-10-12T11:58:31.553Z,99874.89
2022-10-12T12:02:04.791Z,99874.94
2022-10-12T12:05:16.685Z,99870.42
2022-10-12T12:09:19.212Z,99871.77
2022-10-12T12:12:27.696Z,99871.02
2022-10-12T12:15:34.184Z,99871.52
2022-10-12T12:19:13.327Z,99870.83
2022-10-12T12:22:49.156Z,99860.20
2022-10-12T12:26:16.803Z,99856.55
2022-10-12T12:29:30.033Z,99856.91
2022-10-12T12:32:49.557Z,99856.96
2022-10-12T12:35:58.552Z,99858.10
2022-10-12T12:39:06.090Z,99852.41
2022-10-12T12:42:12.761Z,99849.61
2022-10-12T12:45:54.476Z,99851.89
2022-10-12T12:49:26.839Z,99849.04
2022-10-12T12:52:35.361Z,99844.79
2022-10-12T12:56:04.561Z,99844.05
2022-10-12T12:59:35.108Z,99843.42
2022-10-12T13:03:04.650Z,99840.69
2022-10-12T13:06:40.263Z,99839.91
2022-10-12T13:10:08.951Z,99836.04
2022-10-12T13:13:44.308Z,99835.70
2022-10-12T13:17:31.126Z,99833.89
2022-10-12T13:20:28.190Z,99836.77
2022-10-12T13:23:35.053Z,99835.29
2022-10-12T13:26:42.324Z,99834.98
2022-10-12T13:29:55.014Z,99835.72
2022-10-12T13:33:07.778Z,99829.31
2022-10-12T13:36:19.511Z,99823.56
2022-10-12T13:39:25.739Z,99820.80
2022-10-12T13:42:36.038Z,99815.38
2022-10-12T13:45:48.198Z,99818.91
2022-10-12T13:48:59.795Z,99817.41
2022-10-12T13:52:31.821Z,99813.52
2022-10-12T13:55:38.716Z,99819.42
2022-10-12T13:58:45.113Z,99814.30
2022-10-12T14:02:00.902Z,99815.41
2022-10-12T14:05:08.434Z,99812.52
2022-10-12T14:08:20.729Z,99816.06
2022-10-12T14:11:27.915Z,99811.89
2022-10-12T14:14:37.722Z,99812.92
2022-10-12T14:17:47.798Z,99812.09
2022-10-12T14:21:05.735Z,99810.64
2022-10-12T14:24:12.741Z,99811.12
2022-10-12T14:27:26.116Z,99810.98
2022-10-12T14:30:34.435Z,99806.33
2022-10-12T14:33:40.582Z,99812.11
2022-10-12T14:36:45.259Z,99807.73
2022-10-12T14:39:59.519Z,99807.64
2022-10-12T14:43:09.582Z,99805.98
2022-10-12T14:46:15.716Z,99808.54
2022-10-12T14:49:22.306Z,99803.05
2022-10-12T14:52:35.160Z,99804.41
2022-10-12T14:55:42.700Z,99805.02
2022-10-12T14:58:49.607Z,99805.38
2022-10-12T15:01:55.841Z,99806.63
2022-10-12T15:05:02.537Z,99808.36
2022-10-12T15:08:09.387Z,99812.75
2022-10-12T15:11:16.963Z,99808.70
2022-10-12T15:14:23.044Z,99808.41
2022-10-12T15:17:27.535Z,99809.92
2022-10-12T15:20:34.251Z,99813.33
2022-10-12T15:23:40.498Z,99817.11
2022-10-12T15:26:46.833Z,99814.92
2022-10-12T15:29:53.393Z,99811.77
2022-10-12T15:32:59.642Z,99809.95
2022-10-12T15:36:05.754Z,99812.38
2022-10-12T15:39:10.334Z,99817.31
2022-10-12T15:42:16.418Z,99816.19
2022-10-12T15:45:22.691Z,99814.77
2022-10-12T15:48:29.189Z,99817.07
2022-10-12T15:51:39.202Z,99817.92
2022-10-12T15:54:48.771Z,99819.41
2022-10-12T15:57:56.215Z,99820.05
2022-10-12T16:01:02.386Z,99818.24
2022-10-12T16:04:08.055Z,99813.92
2022-10-12T16:07:15.876Z,99817.64
2022-10-12T16:10:24.492Z,99821.34
2022-10-12T16:13:30.574Z,99821.33
2022-10-12T16:16:36.706Z,99818.83
2022-10-12T16:19:42.856Z,99817.88
2022-10-12T16:22:51.147Z,99820.55
2022-10-12T16:25:57.655Z,99826.41
2022-10-12T16:29:03.803Z,99826.96
2022-10-12T16:32:08.257Z,99825.04
2022-10-12T16:35:15.328Z,99823.55
2022-10-12T16:38:21.646Z,99828.90
2022-10-12T16:41:30.412Z,99827.38
2022-10-12T16:44:40.073Z,99828.96
2022-10-12T16:47:44.693Z,99835.18
2022-10-12T16:50:50.879Z,99833.86
2022-10-12T16:53:55.386Z,99834.15
2022-10-12T16:57:01.923Z,99835.59
2022-10-12T17:00:10.681Z,99836.30
2022-10-12T17:03:16.958Z,99839.84
2022-10-12T17:06:23.108Z,99840.61
2022-10-12T17:09:27.955Z,99841.26
2022-10-12T17:12:35.462Z,99842.59
2022-10-12T17:15:44.071Z,99843.63
2022-10-12T17:18:50.206Z,99845.34
2022-10-12T17:21:59.665Z,99845.80
2022-10-12T17:25:06.385Z,99844.61
2022-10-12T17:28:12.467Z,99847.40
2022-10-12T17:31:18.886Z,99847.63
2022-10-12T17:34:26.676Z,99848.43
2022-10-12T17:37:32.837Z,99847.59
2022-10-12T17:40:39.825Z,99845.73
2022-10-12T17:43:46.475Z,99846.27
2022-10-12T17:46:52.680Z,99846.92
2022-10-12T17:49:57.228Z,99845.70
2022-10-12T17:53:03.317Z,99847.27
2022-10-12T17:56:14.043Z,99848.38
2022-10-12T17:59:21.215Z,99850.86
2022-10-12T18:02:27.577Z,99851.70
2022-10-12T18:05:34.867Z,99851.97
2022-10-12T18:08:41.255Z,99854.62
2022-10-12T18:11:47.474Z,99848.27
2022-10-12T18:14:51.925Z,99848.94
2022-10-12T18:17:58.088Z,99847.75
2022-10-12T18:21:08.246Z,99849.68
2022-10-12T18:24:17.662Z,99847.93
2022-10-12T18:27:23.926Z,99842.46
2022-10-12T18:30:30.054Z,99847.30
2022-10-12T18:33:36.721Z,99849.56
2022-10-12T18:36:42.999Z,99847.97
2022-10-12T18:39:47.503Z,99846.24
2022-10-12T18:42:53.879Z,99848.58
2022-10-12T18:45:59.914Z,99848.21
2022-10-12T18:49:08.534Z,99843.86
2022-10-12T18:52:14.557Z,99845.94
2022-10-12T18:55:20.861Z,99847.41
2022-10-12T18:58:25.398Z,99846.35
2022-10-12T19:01:33.187Z,99846.90
2022-10-12T19:04:39.349Z,99846.71
2022-10-12T19:07:45.467Z,99843.20
2022-10-12T19:10:51.566Z,99844.27
2022-10-12T19:14:00.211Z,99844.21
2022-10-12T19:17:06.322Z,99840.17
2022-10-12T19:20:13.792Z,99844.95
2022-10-12T19:23:19.901Z,99845.63
2022-10-12T19:26:28.545Z,99849.22
2022-10-12T19:29:34.678Z,99844.70
2022-10-12T19:32:41.484Z,99848.00
2022-10-12T19:35:47.619Z,99847.95
2022-10-12T19:38:55.972Z,99848.20
2022-10-12T19:42:02.117Z,99848.61
2022-10-12T19:45:09.742Z,99857.32
2022-10-12T19:48:15.971Z,99860.31
2022-10-12T19:51:24.001Z,99857.89
2022-10-12T19:54:34.076Z,99858.54
2022-10-12T19:57:43.202Z,99861.14
2022-10-12T20:00:49.489Z,99858.45
2022-10-12T20:03:53.998Z,99856.89
2022-10-12T20:07:00.142Z,99855.91
2022-10-12T20:10:07.465Z,99853.27
2022-10-12T20:13:13.594Z,99853.43
2022-10-12T20:16:21.194Z,99854.02
2022-10-12T20:19:27.503Z,99852.90
2022-10-12T20:22:32.005Z,99855.34
2022-10-12T20:25:43.177Z,99853.67
2022-10-12T20:28:50.190Z,99852.35
2022-10-12T20:31:56.391Z,99855.20
2022-10-12T20:35:02.444Z,99861.17
2022-10-12T20:38:08.507Z,99858.52
2022-10-12T20:41:17.292Z,99853.94
2022-10-12T20:44:23.607Z,99852.83
2022-10-12T20:47:28.798Z,99850.89
2022-10-12T20:50:35.364Z,99850.42
2022-10-12T20:53:42.171Z,99852.45
2022-10-12T20:56:52.086Z,99849.09
2022-10-12T20:59:58.306Z,99851.38
2022-10-12T21:03:04.461Z,99852.33
2022-10-12T21:06:12.913Z,99854.62
2022-10-12T21:09:18.895Z,99855.41
2022-10-12T21:12:25.095Z,99849.24
2022-10-12T21:15:31.311Z,99850.95
2022-10-12T21:18:38.440Z,99851.14
2022-10-12T21:21:46.720Z,99856.50
2022-10-12T21:24:53.379Z,99854.09
2022-10-12T21:27:59.628Z,99849.34
2022-10-12T21:31:05.936Z,99852.57
2022-10-12T21:34:11.411Z,99850.73
2022-10-12T21:37:17.638Z,99847.04
2022-10-12T21:40:24.475Z,99846.42
2022-10-12T21:43:30.586Z,99845.35
2022-10-12T21:46:37.584Z,99843.30
2022-10-12T21:49:43.698Z,99844.05
2022-10-12T21:52:50.230Z,99840.75
2022-10-12T21:55:56.676Z,99837.73
2022-10-12T21:59:01.959Z,99836.33
2022-10-12T22:02:08.044Z,99834.65
2022-10-12T22:05:14.108Z,99834.22
2022-10-12T22:08:20.229Z,99830.72
2022-10-12T22:11:27.379Z,99832.37
2022-10-12T22:14:33.611Z,99832.80
2022-10-12T22:17:39.762Z,99837.45
2022-10-12T22:20:45.776Z,99841.79
2022-10-12T22:23:51.896Z,99841.39
2022-10-12T22:26:58.001Z,99841.59
2022-10-12T22:30:04.610Z,99843.11
2022-10-12T22:33:10.729Z,99845.40
2022-10-12T22:36:18.019Z,99852.02
2022-10-12T22:39:24.235Z,99842.50
2022-10-12T22:42:30.380Z,99839.09
2022-10-12T22:45:36.461Z,99835.04
2022-10-12T22:48:42.984Z,99839.72
2022-10-12T22:51:49.208Z,99839.31
2022-10-12T22:54:55.212Z,99835.64
2022-10-12T22:58:01.328Z,99835.85
2022-10-12T23:01:09.165Z,99836.81
2022-10-12T23:04:15.506Z,99834.42
2022-10-12T23:07:19.986Z,99835.45
2022-10-12T23:10:26.655Z,99832.61
2022-10-12T23:13:32.847Z,99834.76
2022-10-12T23:16:38.923Z,99837.92
2022-10-12T23:19:45.082Z,99836.67
2022-10-12T23:22:51.164Z,99836.30
2022-10-12T23:26:03.499Z,99835.56
2022-10-12T23:29:09.642Z,99832.33
2022-10-12T23:32:16.683Z,99836.50
2022-10-12T23:35:22.995Z,99835.18
2022-10-12T23:38:31.768Z,99831.44
2022-10-12T23:41:37.844Z,99830.02
2022-10-12T23:44:43.969Z,99834.12
2022-10-12T23:47:50.071Z,99835.77
2022-10-12T23:50:56.703Z,99834.63
2022-10-12T23:54:03.142Z,99828.30
2022-10-12T23:57:22.548Z,99830.97
